sensor_id;sensor_type;location;lat;lon;timestamp;pressure;altitude;pressure_sealevel;temperature;humidity
6433;BME280;3249;42.690;23.260;2023-03-21T00:00:16;94138.53;;;9.79;91.44
6433;BME280;3249;42.690;23.260;2023-03-21T00:02:46;94128.19;;;9.68;90.92
6433;BME280;3249;42.690;23.260;2023-03-21T00:05:15;94129.75;;;9.69;91.00
6433;BME280;3249;42.690;23.260;2023-03-21T00:07:48;94138.22;;;9.69;90.53
6433;BME280;3249;42.690;23.260;2023-03-21T00:10:17;94138.69;;;9.66;90.62
6433;BME280;3249;42.690;23.260;2023-03-21T00:12:46;94132.09;;;9.70;90.82
6433;BME280;3249;42.690;23.260;2023-03-21T00:15:20;94132.75;;;9.66;90.96
6433;BME280;3249;42.690;23.260;2023-03-21T00:17:51;94132.75;;;9.66;90.77
6433;BME280;3249;42.690;23.260;2023-03-21T00:20:29;94133.75;;;9.65;91.19
6433;BME280;3249;42.690;23.260;2023-03-21T00:23:02;94132.19;;;9.64;91.39
6433;BME280;3249;42.690;23.260;2023-03-21T00:25:32;94115.09;;;9.51;91.54
6433;BME280;3249;42.690;23.260;2023-03-21T00:28:01;94131.81;;;9.60;91.62
6433;BME280;3249;42.690;23.260;2023-03-21T00:30:30;94128.69;;;9.58;91.81
6433;BME280;3249;42.690;23.260;2023-03-21T00:32:59;94129.09;;;9.55;92.23
6433;BME280;3249;42.690;23.260;2023-03-21T00:35:28;94131.47;;;9.57;92.17
6433;BME280;3249;42.690;23.260;2023-03-21T00:37:57;94121.72;;;9.58;92.25
6433;BME280;3249;42.690;23.260;2023-03-21T00:40:28;94123.31;;;9.59;93.26
6433;BME280;3249;42.690;23.260;2023-03-21T00:42:57;94123.81;;;9.50;95.67
6433;BME280;3249;42.690;23.260;2023-03-21T00:45:26;94122.50;;;9.41;97.16
6433;BME280;3249;42.690;23.260;2023-03-21T00:47:55;94119.59;;;9.37;98.23
6433;BME280;3249;42.690;23.260;2023-03-21T00:50:24;94113.84;;;9.35;98.50
6433;BME280;3249;42.690;23.260;2023-03-21T00:52:54;94116.75;;;9.45;95.86
6433;BME280;3249;42.690;23.260;2023-03-21T00:55:24;94107.69;;;9.43;96.04
6433;BME280;3249;42.690;23.260;2023-03-21T00:57:56;94119.88;;;9.47;95.27
6433;BME280;3249;42.690;23.260;2023-03-21T01:00:26;94115.28;;;9.31;98.28
6433;BME280;3249;42.690;23.260;2023-03-21T01:02:55;94100.72;;;9.25;98.57
6433;BME280;3249;42.690;23.260;2023-03-21T01:05:32;94112.69;;;9.13;100.00
6433;BME280;3249;42.690;23.260;2023-03-21T01:08:16;94104.47;;;9.05;100.00
6433;BME280;3249;42.690;23.260;2023-03-21T01:10:47;94106.69;;;9.19;99.93
6433;BME280;3249;42.690;23.260;2023-03-21T01:13:22;94107.63;;;9.25;98.89
6433;BME280;3249;42.690;23.260;2023-03-21T01:15:53;94104.66;;;9.28;99.22
6433;BME280;3249;42.690;23.260;2023-03-21T01:18:24;94108.34;;;9.14;100.00
6433;BME280;3249;42.690;23.260;2023-03-21T01:20:55;94102.06;;;8.85;100.00
6433;BME280;3249;42.690;23.260;2023-03-21T01:23:25;94107.56;;;8.64;100.00
6433;BME280;3249;42.690;23.260;2023-03-21T01:25:55;94107.97;;;8.86;100.00
6433;BME280;3249;42.690;23.260;2023-03-21T01:28:28;94113.84;;;8.93;100.00
6433;BME280;3249;42.690;23.260;2023-03-21T01:31:00;94116.81;;;8.90;100.00
6433;BME280;3249;42.690;23.260;2023-03-21T01:33:30;94114.25;;;8.90;100.00
6433;BME280;3249;42.690;23.260;2023-03-21T01:36:00;94094.09;;;8.69;100.00
6433;BME280;3249;42.690;23.260;2023-03-21T01:38:29;94105.31;;;8.74;100.00
6433;BME280;3249;42.690;23.260;2023-03-21T01:40:59;94101.59;;;8.70;100.00
6433;BME280;3249;42.690;23.260;2023-03-21T01:43:35;94102.59;;;8.69;100.00
6433;BME280;3249;42.690;23.260;2023-03-21T01:46:33;94105.72;;;8.71;100.00
6433;BME280;3249;42.690;23.260;2023-03-21T01:49:12;94106.50;;;8.72;100.00
6433;BME280;3249;42.690;23.260;2023-03-21T01:51:47;94101.78;;;8.69;100.00
6433;BME280;3249;42.690;23.260;2023-03-21T01:54:21;94107.22;;;8.54;100.00
6433;BME280;3249;42.690;23.260;2023-03-21T01:56:55;94094.41;;;8.54;100.00
6433;BME280;3249;42.690;23.260;2023-03-21T01:59:32;94096.38;;;8.21;100.00
6433;BME280;3249;42.690;23.260;2023-03-21T02:02:15;94095.56;;;8.27;100.00
6433;BME280;3249;42.690;23.260;2023-03-21T02:05:00;94093.38;;;8.31;100.00
6433;BME280;3249;42.690;23.260;2023-03-21T02:07:31;94095.84;;;8.44;100.00
6433;BME280;3249;42.690;23.260;2023-03-21T02:10:09;94100.38;;;8.42;100.00
6433;BME280;3249;42.690;23.260;2023-03-21T02:12:42;94098.00;;;8.09;100.00
6433;BME280;3249;42.690;23.260;2023-03-21T02:15:14;94076.00;;;7.89;100.00
6433;BME280;3249;42.690;23.260;2023-03-21T02:18:14;94081.81;;;8.09;100.00
6433;BME280;3249;42.690;23.260;2023-03-21T02:24:15;94081.25;;;8.07;100.00
6433;BME280;3249;42.690;23.260;2023-03-21T02:26:55;94041.88;;;7.57;100.00
6433;BME280;3249;42.690;23.260;2023-03-21T02:29:57;94075.66;;;7.85;100.00
6433;BME280;3249;42.690;23.260;2023-03-21T02:32:39;94076.34;;;7.61;100.00
6433;BME280;3249;42.690;23.260;2023-03-21T02:35:32;94070.47;;;7.48;100.00
6433;BME280;3249;42.690;23.260;2023-03-21T02:38:09;94070.06;;;7.57;100.00
6433;BME280;3249;42.690;23.260;2023-03-21T02:40:42;94076.50;;;7.66;100.00
6433;BME280;3249;42.690;23.260;2023-03-21T02:43:18;94050.53;;;7.56;100.00
6433;BME280;3249;42.690;23.260;2023-03-21T02:45:52;94079.63;;;7.68;100.00
6433;BME280;3249;42.690;23.260;2023-03-21T02:48:28;94070.56;;;7.72;100.00
6433;BME280;3249;42.690;23.260;2023-03-21T02:51:01;94073.44;;;7.89;100.00
6433;BME280;3249;42.690;23.260;2023-03-21T02:53:38;94057.88;;;7.90;100.00
6433;BME280;3249;42.690;23.260;2023-03-21T02:56:09;94064.88;;;8.08;100.00
6433;BME280;3249;42.690;23.260;2023-03-21T02:58:44;94063.72;;;8.04;100.00
6433;BME280;3249;42.690;23.260;2023-03-21T03:01:14;94074.25;;;8.20;100.00
6433;BME280;3249;42.690;23.260;2023-03-21T03:03:47;94081.97;;;8.27;100.00
6433;BME280;3249;42.690;23.260;2023-03-21T03:06:18;94081.47;;;8.05;100.00
6433;BME280;3249;42.690;23.260;2023-03-21T03:09:00;94039.31;;;7.57;100.00
6433;BME280;3249;42.690;23.260;2023-03-21T03:11:34;94066.66;;;7.63;100.00
6433;BME280;3249;42.690;23.260;2023-03-21T03:17:04;94081.94;;;7.89;100.00
6433;BME280;3249;42.690;23.260;2023-03-21T03:19:44;94079.50;;;8.01;100.00
6433;BME280;3249;42.690;23.260;2023-03-21T03:22:23;94081.38;;;7.81;100.00
6433;BME280;3249;42.690;23.260;2023-03-21T03:24:59;94090.00;;;7.93;100.00
6433;BME280;3249;42.690;23.260;2023-03-21T03:27:34;94081.38;;;7.81;100.00
6433;BME280;3249;42.690;23.260;2023-03-21T03:30:07;94088.09;;;7.75;100.00
6433;BME280;3249;42.690;23.260;2023-03-21T03:32:41;94079.25;;;7.71;100.00
6433;BME280;3249;42.690;23.260;2023-03-21T03:35:15;94076.47;;;7.73;100.00
6433;BME280;3249;42.690;23.260;2023-03-21T03:37:47;94086.28;;;7.82;100.00
6433;BME280;3249;42.690;23.260;2023-03-21T03:40:25;94077.06;;;7.75;100.00
6433;BME280;3249;42.690;23.260;2023-03-21T03:43:09;94057.59;;;7.04;100.00
6433;BME280;3249;42.690;23.260;2023-03-21T03:45:43;94047.56;;;6.76;100.00
6433;BME280;3249;42.690;23.260;2023-03-21T03:48:20;94076.06;;;7.12;100.00
6433;BME280;3249;42.690;23.260;2023-03-21T03:50:55;94069.97;;;7.13;100.00
6433;BME280;3249;42.690;23.260;2023-03-21T03:53:48;94070.16;;;7.12;100.00
6433;BME280;3249;42.690;23.260;2023-03-21T03:56:22;94057.16;;;7.07;100.00
6433;BME280;3249;42.690;23.260;2023-03-21T03:58:51;94071.97;;;6.85;100.00
6433;BME280;3249;42.690;23.260;2023-03-21T04:01:26;94063.72;;;6.57;100.00
6433;BME280;3249;42.690;23.260;2023-03-21T04:03:56;94061.53;;;6.41;100.00
6433;BME280;3249;42.690;23.260;2023-03-21T04:06:26;94026.34;;;6.17;100.00
6433;BME280;3249;42.690;23.260;2023-03-21T04:08:55;94059.97;;;6.27;100.00
6433;BME280;3249;42.690;23.260;2023-03-21T04:11:26;94076.31;;;6.39;100.00
6433;BME280;3249;42.690;23.260;2023-03-21T04:13:55;94064.50;;;6.38;100.00
6433;BME280;3249;42.690;23.260;2023-03-21T04:16:24;94058.78;;;6.49;100.00
6433;BME280;3249;42.690;23.260;2023-03-21T04:18:57;94053.88;;;6.41;100.00
6433;BME280;3249;42.690;23.260;2023-03-21T04:21:27;94048.56;;;6.17;100.00
6433;BME280;3249;42.690;23.260;2023-03-21T04:23:56;94057.38;;;6.08;100.00
6433;BME280;3249;42.690;23.260;2023-03-21T04:26:28;94056.03;;;6.18;100.00
6433;BME280;3249;42.690;23.260;2023-03-21T04:29:28;94045.22;;;6.29;100.00
6433;BME280;3249;42.690;23.260;2023-03-21T04:32:21;94057.59;;;6.39;100.00
6433;BME280;3249;42.690;23.260;2023-03-21T04:34:58;94044.41;;;6.09;100.00
6433;BME280;3249;42.690;23.260;2023-03-21T04:37:28;94058.78;;;6.36;100.00
6433;BME280;3249;42.690;23.260;2023-03-21T04:39:59;94056.22;;;6.49;100.00
6433;BME280;3249;42.690;23.260;2023-03-21T04:42:34;94061.34;;;6.49;100.00
6433;BME280;3249;42.690;23.260;2023-03-21T04:45:04;94061.56;;;6.54;100.00
6433;BME280;3249;42.690;23.260;2023-03-21T04:47:33;94060.75;;;6.60;100.00
6433;BME280;3249;42.690;23.260;2023-03-21T04:50:03;94063.50;;;6.52;100.00
6433;BME280;3249;42.690;23.260;2023-03-21T04:52:32;94070.56;;;6.31;100.00
6433;BME280;3249;42.690;23.260;2023-03-21T04:55:01;94030.47;;;6.31;100.00
6433;BME280;3249;42.690;23.260;2023-03-21T04:57:30;94068.44;;;6.67;100.00
6433;BME280;3249;42.690;23.260;2023-03-21T05:00:03;94065.66;;;6.81;100.00
6433;BME280;3249;42.690;23.260;2023-03-21T05:02:34;94069.19;;;6.87;100.00
6433;BME280;3249;42.690;23.260;2023-03-21T05:05:06;94073.91;;;6.96;100.00
6433;BME280;3249;42.690;23.260;2023-03-21T05:07:36;94072.34;;;6.69;100.00
6433;BME280;3249;42.690;23.260;2023-03-21T05:10:07;94077.06;;;6.85;100.00
6433;BME280;3249;42.690;23.260;2023-03-21T05:12:38;94064.88;;;6.87;100.00
6433;BME280;3249;42.690;23.260;2023-03-21T05:15:11;94077.44;;;7.08;100.00
6433;BME280;3249;42.690;23.260;2023-03-21T05:17:42;94074.88;;;7.15;100.00
6433;BME280;3249;42.690;23.260;2023-03-21T05:20:14;94078.81;;;7.24;100.00
6433;BME280;3249;42.690;23.260;2023-03-21T05:22:44;94080.56;;;7.23;100.00
6433;BME280;3249;42.690;23.260;2023-03-21T05:25:17;94081.75;;;7.27;100.00
6433;BME280;3249;42.690;23.260;2023-03-21T05:28:14;94087.06;;;7.19;100.00
6433;BME280;3249;42.690;23.260;2023-03-21T05:30:47;94079.25;;;7.08;100.00
6433;BME280;3249;42.690;23.260;2023-03-21T05:33:16;94083.72;;;7.25;100.00
6433;BME280;3249;42.690;23.260;2023-03-21T05:35:49;94087.25;;;7.37;100.00
6433;BME280;3249;42.690;23.260;2023-03-21T05:38:18;94085.13;;;7.08;100.00
6433;BME280;3249;42.690;23.260;2023-03-21T05:40:50;94077.88;;;6.92;100.00
6433;BME280;3249;42.690;23.260;2023-03-21T05:43:20;94079.84;;;6.90;100.00
6433;BME280;3249;42.690;23.260;2023-03-21T05:45:51;94082.97;;;7.12;100.00
6433;BME280;3249;42.690;23.260;2023-03-21T05:48:21;94062.88;;;7.15;100.00
6433;BME280;3249;42.690;23.260;2023-03-21T05:51:08;94068.34;;;7.32;100.00
6433;BME280;3249;42.690;23.260;2023-03-21T05:53:37;94068.28;;;7.51;100.00
6433;BME280;3249;42.690;23.260;2023-03-21T05:56:09;94037.19;;;7.48;100.00
6433;BME280;3249;42.690;23.260;2023-03-21T05:58:48;94071.22;;;8.05;100.00
6433;BME280;3249;42.690;23.260;2023-03-21T06:01:20;94067.56;;;8.26;100.00
6433;BME280;3249;42.690;23.260;2023-03-21T06:03:57;94072.31;;;8.53;100.00
6433;BME280;3249;42.690;23.260;2023-03-21T06:06:28;94065.59;;;8.77;100.00
6433;BME280;3249;42.690;23.260;2023-03-21T06:09:01;94068.53;;;9.05;100.00
6433;BME280;3249;42.690;23.260;2023-03-21T06:11:33;94070.19;;;9.35;100.00
6433;BME280;3249;42.690;23.260;2023-03-21T06:14:22;94071.56;;;9.56;100.00
6433;BME280;3249;42.690;23.260;2023-03-21T06:17:13;94075.34;;;9.72;100.00
6433;BME280;3249;42.690;23.260;2023-03-21T06:19:47;94065.00;;;9.78;100.00
6433;BME280;3249;42.690;23.260;2023-03-21T06:22:40;94064.75;;;9.98;100.00
6433;BME280;3249;42.690;23.260;2023-03-21T06:25:10;94057.03;;;9.98;100.00
6433;BME280;3249;42.690;23.260;2023-03-21T06:27:39;94064.66;;;10.04;100.00
6433;BME280;3249;42.690;23.260;2023-03-21T06:30:10;94061.88;;;10.35;96.33
6433;BME280;3249;42.690;23.260;2023-03-21T06:32:50;94057.34;;;10.49;98.00
6433;BME280;3249;42.690;23.260;2023-03-21T06:35:20;94072.38;;;10.75;95.62
6433;BME280;3249;42.690;23.260;2023-03-21T06:37:49;94072.94;;;10.88;95.77
6433;BME280;3249;42.690;23.260;2023-03-21T06:40:20;94081.72;;;11.10;94.01
6433;BME280;3249;42.690;23.260;2023-03-21T06:42:50;94079.47;;;11.25;90.91
6433;BME280;3249;42.690;23.260;2023-03-21T06:45:19;94081.16;;;11.20;88.86
6433;BME280;3249;42.690;23.260;2023-03-21T06:47:51;94080.03;;;11.16;89.22
6433;BME280;3249;42.690;23.260;2023-03-21T06:50:34;94085.31;;;11.09;87.00
6433;BME280;3249;42.690;23.260;2023-03-21T06:53:03;94085.41;;;11.26;85.58
6433;BME280;3249;42.690;23.260;2023-03-21T06:55:41;94091.69;;;11.30;82.76
6433;BME280;3249;42.690;23.260;2023-03-21T06:58:12;94080.69;;;11.46;83.80
6433;BME280;3249;42.690;23.260;2023-03-21T07:00:44;94103.34;;;11.67;81.67
6433;BME280;3249;42.690;23.260;2023-03-21T07:03:20;94095.84;;;11.65;74.38
6433;BME280;3249;42.690;23.260;2023-03-21T07:05:50;94090.44;;;11.55;72.17
6433;BME280;3249;42.690;23.260;2023-03-21T07:08:22;94078.00;;;11.64;72.43
6433;BME280;3249;42.690;23.260;2023-03-21T07:10:54;94091.78;;;11.69;67.64
6433;BME280;3249;42.690;23.260;2023-03-21T07:13:25;94098.97;;;11.56;70.68
6433;BME280;3249;42.690;23.260;2023-03-21T07:16:02;94102.22;;;11.40;71.56
6433;BME280;3249;42.690;23.260;2023-03-21T07:18:34;94098.75;;;11.34;71.19
6433;BME280;3249;42.690;23.260;2023-03-21T07:21:03;94098.84;;;11.28;70.24
6433;BME280;3249;42.690;23.260;2023-03-21T07:23:32;94105.13;;;11.55;69.37
6433;BME280;3249;42.690;23.260;2023-03-21T07:26:03;94096.69;;;11.82;68.04
6433;BME280;3249;42.690;23.260;2023-03-21T07:28:32;94102.56;;;12.06;66.23
6433;BME280;3249;42.690;23.260;2023-03-21T07:31:03;94090.69;;;12.05;65.81
6433;BME280;3249;42.690;23.260;2023-03-21T07:33:37;94094.66;;;12.24;65.22
6433;BME280;3249;42.690;23.260;2023-03-21T07:36:09;94096.13;;;12.48;61.98
6433;BME280;3249;42.690;23.260;2023-03-21T07:38:40;94116.34;;;12.67;62.28
6433;BME280;3249;42.690;23.260;2023-03-21T07:41:09;94107.63;;;12.40;67.11
6433;BME280;3249;42.690;23.260;2023-03-21T07:43:38;94109.69;;;12.27;67.34
6433;BME280;3249;42.690;23.260;2023-03-21T07:46:10;94093.19;;;12.56;64.24
6433;BME280;3249;42.690;23.260;2023-03-21T07:48:42;94116.72;;;12.59;63.00
6433;BME280;3249;42.690;23.260;2023-03-21T07:51:11;94115.13;;;12.86;61.92
6433;BME280;3249;42.690;23.260;2023-03-21T07:53:41;94086.31;;;12.61;62.20
6433;BME280;3249;42.690;23.260;2023-03-21T07:56:13;94114.19;;;12.76;61.27
6433;BME280;3249;42.690;23.260;2023-03-21T07:58:43;94114.38;;;12.86;61.82
6433;BME280;3249;42.690;23.260;2023-03-21T08:01:12;94114.78;;;12.66;63.37
6433;BME280;3249;42.690;23.260;2023-03-21T08:03:44;94099.16;;;12.73;62.66
6433;BME280;3249;42.690;23.260;2023-03-21T08:06:14;94078.56;;;12.61;61.03
6433;BME280;3249;42.690;23.260;2023-03-21T08:08:43;94114.19;;;12.76;62.50
6433;BME280;3249;42.690;23.260;2023-03-21T08:11:12;94114.66;;;12.73;62.46
6433;BME280;3249;42.690;23.260;2023-03-21T08:13:43;94118.13;;;12.95;61.06
6433;BME280;3249;42.690;23.260;2023-03-21T08:16:12;94105.00;;;13.13;59.81
6433;BME280;3249;42.690;23.260;2023-03-21T08:18:44;94104.38;;;13.22;59.45
6433;BME280;3249;42.690;23.260;2023-03-21T08:21:13;94112.97;;;13.28;58.66
6433;BME280;3249;42.690;23.260;2023-03-21T08:23:42;94107.66;;;13.72;56.42
6433;BME280;3249;42.690;23.260;2023-03-21T08:26:12;94107.56;;;14.06;52.46
6433;BME280;3249;42.690;23.260;2023-03-21T08:28:46;94106.97;;;13.77;52.35
6433;BME280;3249;42.690;23.260;2023-03-21T08:31:15;94093.66;;;13.90;52.68
6433;BME280;3249;42.690;23.260;2023-03-21T08:33:49;94104.16;;;14.22;52.10
6433;BME280;3249;42.690;23.260;2023-03-21T08:36:21;94084.06;;;14.12;52.31
6433;BME280;3249;42.690;23.260;2023-03-21T08:38:54;94100.28;;;14.02;53.43
6433;BME280;3249;42.690;23.260;2023-03-21T08:41:30;94111.88;;;13.78;55.43
6433;BME280;3249;42.690;23.260;2023-03-21T08:43:59;94103.00;;;14.13;54.29
6433;BME280;3249;42.690;23.260;2023-03-21T08:46:30;94079.00;;;13.96;54.66
6433;BME280;3249;42.690;23.260;2023-03-21T08:49:01;94109.91;;;14.07;55.64
6433;BME280;3249;42.690;23.260;2023-03-21T08:51:31;94103.59;;;13.98;51.70
6433;BME280;3249;42.690;23.260;2023-03-21T08:54:02;94103.78;;;14.13;50.83
6433;BME280;3249;42.690;23.260;2023-03-21T08:56:32;94093.88;;;14.27;47.88
6433;BME280;3249;42.690;23.260;2023-03-21T08:59:01;94109.50;;;14.37;47.97
6433;BME280;3249;42.690;23.260;2023-03-21T09:01:30;94100.03;;;14.47;48.58
6433;BME280;3249;42.690;23.260;2023-03-21T09:04:02;94109.00;;;14.61;48.91
6433;BME280;3249;42.690;23.260;2023-03-21T09:06:36;94097.03;;;14.34;49.66
6433;BME280;3249;42.690;23.260;2023-03-21T09:09:06;94095.59;;;14.00;51.99
6433;BME280;3249;42.690;23.260;2023-03-21T09:11:36;94089.34;;;13.96;53.95
6433;BME280;3249;42.690;23.260;2023-03-21T09:14:05;94086.25;;;14.20;51.27
6433;BME280;3249;42.690;23.260;2023-03-21T09:16:34;94089.22;;;14.29;51.48
6433;BME280;3249;42.690;23.260;2023-03-21T09:19:05;94079.47;;;13.93;54.18
6433;BME280;3249;42.690;23.260;2023-03-21T09:21:35;94078.91;;;14.12;53.42
6433;BME280;3249;42.690;23.260;2023-03-21T09:24:05;94065.00;;;14.18;52.29
6433;BME280;3249;42.690;23.260;2023-03-21T09:26:37;94078.19;;;14.38;52.05
6433;BME280;3249;42.690;23.260;2023-03-21T09:29:09;94063.44;;;14.39;52.14
6433;BME280;3249;42.690;23.260;2023-03-21T09:31:38;94062.75;;;14.48;51.73
6433;BME280;3249;42.690;23.260;2023-03-21T09:34:11;94045.84;;;14.41;49.97
6433;BME280;3249;42.690;23.260;2023-03-21T09:36:40;94062.13;;;14.94;47.77
6433;BME280;3249;42.690;23.260;2023-03-21T09:39:13;94070.59;;;15.16;45.99
6433;BME280;3249;42.690;23.260;2023-03-21T09:41:56;94070.50;;;15.38;46.01
6433;BME280;3249;42.690;23.260;2023-03-21T09:44:40;94053.03;;;15.28;46.48
6433;BME280;3249;42.690;23.260;2023-03-21T09:47:16;94047.31;;;15.26;45.05
6433;BME280;3249;42.690;23.260;2023-03-21T09:49:53;94031.03;;;14.99;45.42
6433;BME280;3249;42.690;23.260;2023-03-21T09:52:26;94058.16;;;15.55;44.77
6433;BME280;3249;42.690;23.260;2023-03-21T09:54:57;94061.47;;;15.45;44.92
6433;BME280;3249;42.690;23.260;2023-03-21T09:57:47;94053.72;;;15.55;44.81
6433;BME280;3249;42.690;23.260;2023-03-21T10:00:23;94052.25;;;15.64;44.33
6433;BME280;3249;42.690;23.260;2023-03-21T10:02:56;94045.06;;;15.35;46.59
6433;BME280;3249;42.690;23.260;2023-03-21T10:05:34;94048.44;;;15.87;45.23
6433;BME280;3249;42.690;23.260;2023-03-21T10:08:13;94036.84;;;16.04;43.49
6433;BME280;3249;42.690;23.260;2023-03-21T10:10:46;94020.53;;;15.57;43.96
6433;BME280;3249;42.690;23.260;2023-03-21T10:13:21;94045.88;;;15.92;43.69
6433;BME280;3249;42.690;23.260;2023-03-21T10:15:55;94023.34;;;16.12;42.00
6433;BME280;3249;42.690;23.260;2023-03-21T10:18:29;94030.69;;;15.59;41.65
6433;BME280;3249;42.690;23.260;2023-03-21T10:21:03;94022.66;;;15.60;42.08
6433;BME280;3249;42.690;23.260;2023-03-21T10:23:33;94034.00;;;16.21;40.58
6433;BME280;3249;42.690;23.260;2023-03-21T10:26:04;94041.13;;;16.50;39.60
6433;BME280;3249;42.690;23.260;2023-03-21T10:28:36;94041.69;;;16.72;38.66
6433;BME280;3249;42.690;23.260;2023-03-21T10:31:08;94000.00;;;16.17;38.35
6433;BME280;3249;42.690;23.260;2023-03-21T10:33:40;94030.84;;;16.09;39.23
6433;BME280;3249;42.690;23.260;2023-03-21T10:36:15;94033.84;;;16.62;38.10
6433;BME280;3249;42.690;23.260;2023-03-21T10:38:47;94037.09;;;16.13;38.81
6433;BME280;3249;42.690;23.260;2023-03-21T10:41:16;94040.03;;;16.36;38.51
6433;BME280;3249;42.690;23.260;2023-03-21T10:43:46;94034.41;;;16.59;36.93
6433;BME280;3249;42.690;23.260;2023-03-21T10:46:31;94034.38;;;16.49;36.19
6433;BME280;3249;42.690;23.260;2023-03-21T10:49:01;94036.22;;;17.04;35.17
6433;BME280;3249;42.690;23.260;2023-03-21T10:51:35;94051.28;;;17.07;35.06
6433;BME280;3249;42.690;23.260;2023-03-21T10:54:06;94035.16;;;17.30;34.28
6433;BME280;3249;42.690;23.260;2023-03-21T10:56:39;94025.56;;;16.85;34.59
6433;BME280;3249;42.690;23.260;2023-03-21T10:59:17;94028.91;;;16.61;35.24
6433;BME280;3249;42.690;23.260;2023-03-21T11:01:49;94028.41;;;16.54;35.63
6433;BME280;3249;42.690;23.260;2023-03-21T11:04:22;94014.63;;;16.53;36.26
6433;BME280;3249;42.690;23.260;2023-03-21T11:06:56;94012.84;;;16.89;35.00
6433;BME280;3249;42.690;23.260;2023-03-21T11:09:43;94008.41;;;16.84;36.01
6433;BME280;3249;42.690;23.260;2023-03-21T11:12:14;94004.50;;;16.82;35.63
6433;BME280;3249;42.690;23.260;2023-03-21T11:14:46;94010.22;;;16.64;35.41
6433;BME280;3249;42.690;23.260;2023-03-21T11:17:21;94014.09;;;17.16;34.40
6433;BME280;3249;42.690;23.260;2023-03-21T11:19:52;94009.16;;;17.00;34.14
6433;BME280;3249;42.690;23.260;2023-03-21T11:22:28;94007.88;;;16.72;34.55
6433;BME280;3249;42.690;23.260;2023-03-21T11:24:59;94006.81;;;17.08;33.63
6433;BME280;3249;42.690;23.260;2023-03-21T11:27:30;93991.78;;;16.75;35.84
6433;BME280;3249;42.690;23.260;2023-03-21T11:30:01;93988.59;;;17.13;34.98
6433;BME280;3249;42.690;23.260;2023-03-21T11:32:32;93959.44;;;17.31;33.79
6433;BME280;3249;42.690;23.260;2023-03-21T11:35:05;93977.84;;;17.60;35.35
6433;BME280;3249;42.690;23.260;2023-03-21T11:37:42;93979.28;;;16.57;35.61
6433;BME280;3249;42.690;23.260;2023-03-21T11:40:20;93974.72;;;15.88;35.93
6433;BME280;3249;42.690;23.260;2023-03-21T11:42:51;93967.53;;;16.10;36.73
6433;BME280;3249;42.690;23.260;2023-03-21T11:45:23;93964.13;;;16.14;37.65
6433;BME280;3249;42.690;23.260;2023-03-21T11:47:55;93964.44;;;16.38;36.50
6433;BME280;3249;42.690;23.260;2023-03-21T11:50:33;93962.66;;;16.58;35.80
6433;BME280;3249;42.690;23.260;2023-03-21T11:53:15;93966.53;;;16.61;34.93
6433;BME280;3249;42.690;23.260;2023-03-21T11:59:03;93954.34;;;16.41;36.21
6433;BME280;3249;42.690;23.260;2023-03-21T12:01:42;93926.50;;;16.32;36.39
6433;BME280;3249;42.690;23.260;2023-03-21T12:04:24;93955.59;;;16.29;36.41
6433;BME280;3249;42.690;23.260;2023-03-21T12:07:01;93937.19;;;16.50;36.81
6433;BME280;3249;42.690;23.260;2023-03-21T12:09:40;93919.50;;;16.27;36.51
6433;BME280;3249;42.690;23.260;2023-03-21T12:12:31;93915.38;;;16.56;35.07
6433;BME280;3249;42.690;23.260;2023-03-21T12:15:07;93945.50;;;16.72;33.71
6433;BME280;3249;42.690;23.260;2023-03-21T12:17:44;93933.53;;;16.66;33.76
6433;BME280;3249;42.690;23.260;2023-03-21T12:20:42;93937.91;;;17.06;32.72
6433;BME280;3249;42.690;23.260;2023-03-21T12:23:30;93938.72;;;16.86;32.84
6433;BME280;3249;42.690;23.260;2023-03-21T12:26:14;93926.75;;;17.00;32.53
6433;BME280;3249;42.690;23.260;2023-03-21T12:29:01;93929.59;;;17.09;32.54
6433;BME280;3249;42.690;23.260;2023-03-21T12:31:43;93927.72;;;17.14;32.76
6433;BME280;3249;42.690;23.260;2023-03-21T12:34:27;93929.84;;;17.12;33.52
6433;BME280;3249;42.690;23.260;2023-03-21T12:37:10;93917.69;;;16.78;33.63
6433;BME280;3249;42.690;23.260;2023-03-21T12:39:45;93917.06;;;17.16;31.93
6433;BME280;3249;42.690;23.260;2023-03-21T12:45:32;93916.25;;;17.40;30.86
6433;BME280;3249;42.690;23.260;2023-03-21T12:48:13;93902.19;;;17.36;31.41
6433;BME280;3249;42.690;23.260;2023-03-21T12:50:46;93904.53;;;17.33;31.89
6433;BME280;3249;42.690;23.260;2023-03-21T12:53:28;93904.34;;;17.09;32.96
6433;BME280;3249;42.690;23.260;2023-03-21T12:56:05;93902.59;;;16.80;32.39
6433;BME280;3249;42.690;23.260;2023-03-21T12:58:44;93877.44;;;16.45;32.84
6433;BME280;3249;42.690;23.260;2023-03-21T13:01:15;93891.19;;;16.41;33.42
6433;BME280;3249;42.690;23.260;2023-03-21T13:03:49;93882.88;;;16.49;33.39
6433;BME280;3249;42.690;23.260;2023-03-21T13:06:24;93884.66;;;16.78;33.33
6433;BME280;3249;42.690;23.260;2023-03-21T13:08:58;93887.19;;;17.08;32.38
6433;BME280;3249;42.690;23.260;2023-03-21T13:11:29;93892.00;;;17.40;31.90
6433;BME280;3249;42.690;23.260;2023-03-21T13:14:04;93864.44;;;17.44;31.81
6433;BME280;3249;42.690;23.260;2023-03-21T13:16:35;93880.97;;;17.04;32.26
6433;BME280;3249;42.690;23.260;2023-03-21T13:19:15;93887.16;;;17.23;32.16
6433;BME280;3249;42.690;23.260;2023-03-21T13:21:50;93873.09;;;17.19;31.59
6433;BME280;3249;42.690;23.260;2023-03-21T13:24:25;93882.41;;;17.40;31.82
6433;BME280;3249;42.690;23.260;2023-03-21T13:27:01;93881.31;;;17.51;31.44
6433;BME280;3249;42.690;23.260;2023-03-21T13:29:42;93867.25;;;17.52;31.35
6433;BME280;3249;42.690;23.260;2023-03-21T13:32:27;93873.97;;;17.63;31.76
6433;BME280;3249;42.690;23.260;2023-03-21T13:34:58;93875.06;;;17.52;31.83
6433;BME280;3249;42.690;23.260;2023-03-21T13:37:31;93873.00;;;17.49;32.36
6433;BME280;3249;42.690;23.260;2023-03-21T13:40:04;93863.16;;;17.36;32.35
6433;BME280;3249;42.690;23.260;2023-03-21T13:42:43;93852.22;;;17.39;32.79
6433;BME280;3249;42.690;23.260;2023-03-21T13:45:26;93851.66;;;17.52;32.03
6433;BME280;3249;42.690;23.260;2023-03-21T13:47:57;93838.41;;;17.39;32.63
6433;BME280;3249;42.690;23.260;2023-03-21T13:53:23;93855.34;;;17.36;32.95
6433;BME280;3249;42.690;23.260;2023-03-21T13:56:19;93854.78;;;17.49;32.68
6433;BME280;3249;42.690;23.260;2023-03-21T13:58:52;93855.31;;;17.51;32.96
6433;BME280;3249;42.690;23.260;2023-03-21T14:01:31;93860.53;;;17.41;32.59
6433;BME280;3249;42.690;23.260;2023-03-21T14:04:08;93853.25;;;17.33;32.82